sensor_id;sensor_type;location;lat;lon;timestamp;P1;durP1;ratioP1;P2;durP2;ratioP2
53044;SDS011;38930;52.766;6.884;2022-07-11T00:02:15;4.50;;;1.60;;
53044;SDS011;38930;52.766;6.884;2022-07-11T00:04:41;5.03;;;1.50;;
53044;SDS011;38930;52.766;6.884;2022-07-11T00:09:33;4.90;;;1.88;;
53044;SDS011;38930;52.766;6.884;2022-07-11T00:11:59;4.00;;;1.60;;
53044;SDS011;38930;52.766;6.884;2022-07-11T00:14:25;7.15;;;1.95;;
53044;SDS011;38930;52.766;6.884;2022-07-11T00:16:52;7.07;;;1.90;;
53044;SDS011;38930;52.766;6.884;2022-07-11T00:19:21;7.20;;;1.93;;
53044;SDS011;38930;52.766;6.884;2022-07-11T00:21:51;4.55;;;2.00;;
53044;SDS011;38930;52.766;6.884;2022-07-11T00:24:18;4.57;;;1.70;;
53044;SDS011;38930;52.766;6.884;2022-07-11T00:26:45;6.32;;;1.70;;
53044;SDS011;38930;52.766;6.884;2022-07-11T00:29:12;3.38;;;1.58;;
53044;SDS011;38930;52.766;6.884;2022-07-11T00:31:37;6.40;;;1.80;;
53044;SDS011;38930;52.766;6.884;2022-07-11T00:34:03;4.20;;;1.60;;
53044;SDS011;38930;52.766;6.884;2022-07-11T00:36:29;8.00;;;2.10;;
53044;SDS011;38930;52.766;6.884;2022-07-11T00:38:56;2.90;;;1.60;;
53044;SDS011;38930;52.766;6.884;2022-07-11T00:41:22;4.77;;;1.80;;
53044;SDS011;38930;52.766;6.884;2022-07-11T00:43:57;6.07;;;2.47;;
53044;SDS011;38930;52.766;6.884;2022-07-11T00:46:24;5.53;;;2.20;;
53044;SDS011;38930;52.766;6.884;2022-07-11T00:48:51;3.03;;;1.67;;
53044;SDS011;38930;52.766;6.884;2022-07-11T00:51:18;4.45;;;1.90;;
53044;SDS011;38930;52.766;6.884;2022-07-11T00:53:48;3.58;;;1.65;;
53044;SDS011;38930;52.766;6.884;2022-07-11T00:56:16;6.65;;;1.90;;
53044;SDS011;38930;52.766;6.884;2022-07-11T00:58:44;4.72;;;2.05;;
53044;SDS011;38930;52.766;6.884;2022-07-11T01:01:10;5.07;;;1.60;;
53044;SDS011;38930;52.766;6.884;2022-07-11T01:06:04;3.30;;;1.70;;
53044;SDS011;38930;52.766;6.884;2022-07-11T01:08:31;4.22;;;2.03;;
53044;SDS011;38930;52.766;6.884;2022-07-11T01:11:01;5.82;;;1.83;;
53044;SDS011;38930;52.766;6.884;2022-07-11T01:13:27;4.72;;;1.98;;
53044;SDS011;38930;52.766;6.884;2022-07-11T01:16:12;5.17;;;2.20;;
53044;SDS011;38930;52.766;6.884;2022-07-11T01:18:39;5.97;;;1.92;;
53044;SDS011;38930;52.766;6.884;2022-07-11T01:23:44;4.22;;;2.00;;
53044;SDS011;38930;52.766;6.884;2022-07-11T01:26:14;4.47;;;1.90;;
53044;SDS011;38930;52.766;6.884;2022-07-11T01:28:41;6.78;;;2.10;;
53044;SDS011;38930;52.766;6.884;2022-07-11T01:31:07;5.70;;;2.23;;
53044;SDS011;38930;52.766;6.884;2022-07-11T01:33:32;5.40;;;1.80;;
53044;SDS011;38930;52.766;6.884;2022-07-11T01:36:01;4.67;;;1.83;;
53044;SDS011;38930;52.766;6.884;2022-07-11T01:38:27;6.90;;;1.90;;
53044;SDS011;38930;52.766;6.884;2022-07-11T01:40:53;5.80;;;2.13;;
53044;SDS011;38930;52.766;6.884;2022-07-11T01:43:19;4.87;;;2.10;;
53044;SDS011;38930;52.766;6.884;2022-07-11T01:45:44;5.07;;;2.00;;
53044;SDS011;38930;52.766;6.884;2022-07-11T01:48:10;5.83;;;1.83;;
53044;SDS011;38930;52.766;6.884;2022-07-11T01:50:36;4.60;;;2.10;;
53044;SDS011;38930;52.766;6.884;2022-07-11T01:53:01;3.60;;;1.83;;
53044;SDS011;38930;52.766;6.884;2022-07-11T01:55:27;5.37;;;1.90;;
53044;SDS011;38930;52.766;6.884;2022-07-11T01:57:53;4.73;;;1.90;;
53044;SDS011;38930;52.766;6.884;2022-07-11T02:00:18;4.40;;;2.27;;
53044;SDS011;38930;52.766;6.884;2022-07-11T02:02:44;6.10;;;2.70;;
53044;SDS011;38930;52.766;6.884;2022-07-11T02:05:10;5.20;;;2.23;;
53044;SDS011;38930;52.766;6.884;2022-07-11T02:07:36;4.10;;;2.10;;
53044;SDS011;38930;52.766;6.884;2022-07-11T02:10:20;4.72;;;2.53;;
53044;SDS011;38930;52.766;6.884;2022-07-11T02:12:45;7.97;;;2.37;;
53044;SDS011;38930;52.766;6.884;2022-07-11T02:15:11;4.83;;;1.90;;
53044;SDS011;38930;52.766;6.884;2022-07-11T02:17:36;7.53;;;2.53;;
53044;SDS011;38930;52.766;6.884;2022-07-11T02:20:02;5.57;;;2.27;;
53044;SDS011;38930;52.766;6.884;2022-07-11T02:22:28;7.18;;;2.47;;
53044;SDS011;38930;52.766;6.884;2022-07-11T02:24:55;7.55;;;2.33;;
53044;SDS011;38930;52.766;6.884;2022-07-11T02:27:21;6.37;;;2.10;;
53044;SDS011;38930;52.766;6.884;2022-07-11T02:29:46;4.63;;;2.07;;
53044;SDS011;38930;52.766;6.884;2022-07-11T02:32:12;4.87;;;2.23;;
53044;SDS011;38930;52.766;6.884;2022-07-11T02:34:37;5.63;;;2.30;;
53044;SDS011;38930;52.766;6.884;2022-07-11T02:37:03;6.10;;;2.30;;
53044;SDS011;38930;52.766;6.884;2022-07-11T02:39:30;4.38;;;2.00;;
53044;SDS011;38930;52.766;6.884;2022-07-11T02:41:56;5.97;;;2.40;;
53044;SDS011;38930;52.766;6.884;2022-07-11T02:44:21;4.30;;;2.03;;
53044;SDS011;38930;52.766;6.884;2022-07-11T02:46:47;5.40;;;1.93;;
53044;SDS011;38930;52.766;6.884;2022-07-11T02:49:13;5.50;;;2.20;;
53044;SDS011;38930;52.766;6.884;2022-07-11T02:51:38;3.93;;;1.80;;
53044;SDS011;38930;52.766;6.884;2022-07-11T02:54:04;4.90;;;2.13;;
53044;SDS011;38930;52.766;6.884;2022-07-11T02:56:29;3.30;;;1.63;;
53044;SDS011;38930;52.766;6.884;2022-07-11T02:58:55;2.97;;;1.50;;
53044;SDS011;38930;52.766;6.884;2022-07-11T03:01:21;6.23;;;2.20;;
53044;SDS011;38930;52.766;6.884;2022-07-11T03:03:46;3.10;;;1.50;;
53044;SDS011;38930;52.766;6.884;2022-07-11T03:06:12;4.23;;;1.67;;
53044;SDS011;38930;52.766;6.884;2022-07-11T03:08:37;3.10;;;1.67;;
53044;SDS011;38930;52.766;6.884;2022-07-11T03:13:30;3.20;;;1.60;;
53044;SDS011;38930;52.766;6.884;2022-07-11T03:15:56;3.73;;;1.70;;
53044;SDS011;38930;52.766;6.884;2022-07-11T03:18:22;3.23;;;1.70;;
53044;SDS011;38930;52.766;6.884;2022-07-11T03:20:47;3.95;;;1.67;;
53044;SDS011;38930;52.766;6.884;2022-07-11T03:23:13;4.85;;;2.10;;
53044;SDS011;38930;52.766;6.884;2022-07-11T03:25:38;3.10;;;1.70;;
53044;SDS011;38930;52.766;6.884;2022-07-11T03:28:04;2.63;;;1.70;;
53044;SDS011;38930;52.766;6.884;2022-07-11T03:30:30;3.40;;;1.67;;
53044;SDS011;38930;52.766;6.884;2022-07-11T03:32:56;3.53;;;2.10;;
53044;SDS011;38930;52.766;6.884;2022-07-11T03:35:22;2.30;;;1.93;;
53044;SDS011;38930;52.766;6.884;2022-07-11T03:38:06;2.80;;;2.05;;
53044;SDS011;38930;52.766;6.884;2022-07-11T03:40:32;2.70;;;1.87;;
53044;SDS011;38930;52.766;6.884;2022-07-11T03:42:57;3.00;;;1.57;;
53044;SDS011;38930;52.766;6.884;2022-07-11T03:45:23;3.40;;;1.77;;
53044;SDS011;38930;52.766;6.884;2022-07-11T03:47:49;2.50;;;2.00;;
53044;SDS011;38930;52.766;6.884;2022-07-11T03:50:14;3.17;;;1.88;;
53044;SDS011;38930;52.766;6.884;2022-07-11T03:55:07;3.05;;;1.85;;
53044;SDS011;38930;52.766;6.884;2022-07-11T03:57:33;3.20;;;2.10;;
53044;SDS011;38930;52.766;6.884;2022-07-11T03:59:59;2.38;;;1.73;;
53044;SDS011;38930;52.766;6.884;2022-07-11T04:02:27;2.60;;;1.92;;
53044;SDS011;38930;52.766;6.884;2022-07-11T04:04:53;3.35;;;2.20;;
53044;SDS011;38930;52.766;6.884;2022-07-11T04:07:18;2.23;;;1.80;;
53044;SDS011;38930;52.766;6.884;2022-07-11T04:12:11;2.78;;;1.75;;
53044;SDS011;38930;52.766;6.884;2022-07-11T04:14:37;2.20;;;1.80;;
53044;SDS011;38930;52.766;6.884;2022-07-11T04:17:02;2.77;;;1.73;;
53044;SDS011;38930;52.766;6.884;2022-07-11T04:19:28;2.17;;;1.53;;
53044;SDS011;38930;52.766;6.884;2022-07-11T04:21:54;3.13;;;2.00;;
53044;SDS011;38930;52.766;6.884;2022-07-11T04:24:20;2.65;;;1.70;;
53044;SDS011;38930;52.766;6.884;2022-07-11T04:26:46;3.43;;;1.90;;
53044;SDS011;38930;52.766;6.884;2022-07-11T04:29:11;2.53;;;1.90;;
53044;SDS011;38930;52.766;6.884;2022-07-11T04:31:37;2.63;;;1.70;;
53044;SDS011;38930;52.766;6.884;2022-07-11T04:34:03;3.87;;;2.40;;
53044;SDS011;38930;52.766;6.884;2022-07-11T04:36:28;3.33;;;2.13;;
53044;SDS011;38930;52.766;6.884;2022-07-11T04:38:54;4.03;;;2.83;;
53044;SDS011;38930;52.766;6.884;2022-07-11T04:41:19;3.00;;;2.40;;
53044;SDS011;38930;52.766;6.884;2022-07-11T04:43:45;4.13;;;2.60;;
53044;SDS011;38930;52.766;6.884;2022-07-11T04:46:10;4.27;;;3.10;;
53044;SDS011;38930;52.766;6.884;2022-07-11T04:48:36;4.63;;;3.03;;
53044;SDS011;38930;52.766;6.884;2022-07-11T04:51:05;4.22;;;2.70;;
53044;SDS011;38930;52.766;6.884;2022-07-11T04:53:31;4.25;;;2.53;;
53044;SDS011;38930;52.766;6.884;2022-07-11T04:55:57;3.92;;;2.58;;
53044;SDS011;38930;52.766;6.884;2022-07-11T04:58:23;5.23;;;3.47;;
53044;SDS011;38930;52.766;6.884;2022-07-11T05:00:48;5.50;;;3.10;;
53044;SDS011;38930;52.766;6.884;2022-07-11T05:03:14;3.53;;;2.43;;
53044;SDS011;38930;52.766;6.884;2022-07-11T05:05:40;3.07;;;2.50;;
53044;SDS011;38930;52.766;6.884;2022-07-11T05:08:05;4.13;;;2.50;;
53044;SDS011;38930;52.766;6.884;2022-07-11T05:10:31;5.10;;;2.53;;
53044;SDS011;38930;52.766;6.884;2022-07-11T05:15:24;4.97;;;2.80;;
53044;SDS011;38930;52.766;6.884;2022-07-11T05:17:49;3.03;;;2.10;;
53044;SDS011;38930;52.766;6.884;2022-07-11T05:20:15;4.33;;;2.17;;
53044;SDS011;38930;52.766;6.884;2022-07-11T05:22:41;4.33;;;2.30;;
53044;SDS011;38930;52.766;6.884;2022-07-11T05:25:08;3.20;;;1.80;;
53044;SDS011;38930;52.766;6.884;2022-07-11T05:27:33;4.43;;;2.00;;
53044;SDS011;38930;52.766;6.884;2022-07-11T05:29:59;3.57;;;2.20;;
53044;SDS011;38930;52.766;6.884;2022-07-11T05:32:24;3.77;;;2.00;;
53044;SDS011;38930;52.766;6.884;2022-07-11T05:34:50;2.83;;;1.83;;
53044;SDS011;38930;52.766;6.884;2022-07-11T05:37:16;2.17;;;1.90;;
53044;SDS011;38930;52.766;6.884;2022-07-11T05:39:41;3.07;;;1.90;;
53044;SDS011;38930;52.766;6.884;2022-07-11T05:42:07;3.95;;;2.08;;
53044;SDS011;38930;52.766;6.884;2022-07-11T05:44:32;2.93;;;2.10;;
53044;SDS011;38930;52.766;6.884;2022-07-11T05:47:01;3.60;;;2.00;;
53044;SDS011;38930;52.766;6.884;2022-07-11T05:49:28;3.38;;;1.90;;
53044;SDS011;38930;52.766;6.884;2022-07-11T05:51:55;3.47;;;1.98;;
53044;SDS011;38930;52.766;6.884;2022-07-11T05:54:20;2.10;;;1.50;;
53044;SDS011;38930;52.766;6.884;2022-07-11T05:56:46;2.70;;;1.50;;
53044;SDS011;38930;52.766;6.884;2022-07-11T05:59:12;2.00;;;1.43;;
53044;SDS011;38930;52.766;6.884;2022-07-11T06:01:39;2.63;;;1.60;;
53044;SDS011;38930;52.766;6.884;2022-07-11T06:04:04;2.97;;;1.33;;
53044;SDS011;38930;52.766;6.884;2022-07-11T06:06:30;2.20;;;1.43;;
53044;SDS011;38930;52.766;6.884;2022-07-11T06:08:56;1.90;;;1.30;;
53044;SDS011;38930;52.766;6.884;2022-07-11T06:11:23;1.98;;;1.25;;
53044;SDS011;38930;52.766;6.884;2022-07-11T06:13:49;2.20;;;1.27;;
53044;SDS011;38930;52.766;6.884;2022-07-11T06:16:15;2.43;;;1.50;;
53044;SDS011;38930;52.766;6.884;2022-07-11T06:18:42;2.03;;;1.40;;
53044;SDS011;38930;52.766;6.884;2022-07-11T06:21:08;2.10;;;1.23;;
53044;SDS011;38930;52.766;6.884;2022-07-11T06:23:34;3.53;;;1.20;;
53044;SDS011;38930;52.766;6.884;2022-07-11T06:26:00;2.07;;;1.20;;
53044;SDS011;38930;52.766;6.884;2022-07-11T06:28:26;1.48;;;1.05;;
53044;SDS011;38930;52.766;6.884;2022-07-11T06:30:52;2.13;;;1.13;;
53044;SDS011;38930;52.766;6.884;2022-07-11T06:33:18;0.97;;;0.77;;
53044;SDS011;38930;52.766;6.884;2022-07-11T06:35:44;1.80;;;1.00;;
53044;SDS011;38930;52.766;6.884;2022-07-11T06:38:11;3.05;;;1.00;;
53044;SDS011;38930;52.766;6.884;2022-07-11T06:40:38;1.88;;;1.00;;
53044;SDS011;38930;52.766;6.884;2022-07-11T06:43:04;1.92;;;0.90;;
53044;SDS011;38930;52.766;6.884;2022-07-11T06:45:31;2.17;;;1.05;;
53044;SDS011;38930;52.766;6.884;2022-07-11T06:47:58;2.38;;;1.10;;
53044;SDS011;38930;52.766;6.884;2022-07-11T06:50:23;1.63;;;0.87;;
53044;SDS011;38930;52.766;6.884;2022-07-11T06:52:49;2.17;;;0.90;;
53044;SDS011;38930;52.766;6.884;2022-07-11T06:55:14;2.63;;;1.20;;
53044;SDS011;38930;52.766;6.884;2022-07-11T06:57:40;1.83;;;1.00;;
53044;SDS011;38930;52.766;6.884;2022-07-11T07:00:06;0.83;;;0.70;;
53044;SDS011;38930;52.766;6.884;2022-07-11T07:02:33;1.73;;;0.90;;
53044;SDS011;38930;52.766;6.884;2022-07-11T07:04:58;1.47;;;0.77;;
53044;SDS011;38930;52.766;6.884;2022-07-11T07:07:25;2.00;;;0.70;;
53044;SDS011;38930;52.766;6.884;2022-07-11T07:09:52;1.35;;;0.80;;
53044;SDS011;38930;52.766;6.884;2022-07-11T07:12:19;9.07;;;1.00;;
53044;SDS011;38930;52.766;6.884;2022-07-11T07:14:45;3.28;;;0.90;;
53044;SDS011;38930;52.766;6.884;2022-07-11T07:17:10;1.70;;;0.90;;
53044;SDS011;38930;52.766;6.884;2022-07-11T07:19:36;2.53;;;0.90;;
53044;SDS011;38930;52.766;6.884;2022-07-11T07:22:02;1.87;;;0.90;;
53044;SDS011;38930;52.766;6.884;2022-07-11T07:24:28;1.33;;;0.80;;
53044;SDS011;38930;52.766;6.884;2022-07-11T07:26:53;2.13;;;0.93;;
53044;SDS011;38930;52.766;6.884;2022-07-11T07:29:19;3.40;;;0.90;;
53044;SDS011;38930;52.766;6.884;2022-07-11T07:34:11;1.67;;;0.77;;
53044;SDS011;38930;52.766;6.884;2022-07-11T07:36:37;2.93;;;0.93;;
53044;SDS011;38930;52.766;6.884;2022-07-11T07:39:02;3.47;;;1.00;;
53044;SDS011;38930;52.766;6.884;2022-07-11T07:41:28;2.43;;;0.87;;
53044;SDS011;38930;52.766;6.884;2022-07-11T07:43:54;1.73;;;0.80;;
53044;SDS011;38930;52.766;6.884;2022-07-11T07:46:19;1.23;;;0.90;;
53044;SDS011;38930;52.766;6.884;2022-07-11T07:48:45;1.73;;;0.83;;
53044;SDS011;38930;52.766;6.884;2022-07-11T07:51:10;1.80;;;0.80;;
53044;SDS011;38930;52.766;6.884;2022-07-11T07:53:36;4.10;;;1.00;;
53044;SDS011;38930;52.766;6.884;2022-07-11T07:56:03;1.53;;;0.80;;
53044;SDS011;38930;52.766;6.884;2022-07-11T07:58:31;1.65;;;0.73;;
53044;SDS011;38930;52.766;6.884;2022-07-11T08:00:57;2.57;;;0.80;;
53044;SDS011;38930;52.766;6.884;2022-07-11T08:03:41;1.75;;;0.90;;
53044;SDS011;38930;52.766;6.884;2022-07-11T08:06:07;1.50;;;0.90;;
53044;SDS011;38930;52.766;6.884;2022-07-11T08:08:32;1.23;;;0.70;;
53044;SDS011;38930;52.766;6.884;2022-07-11T08:10:58;1.27;;;0.60;;
53044;SDS011;38930;52.766;6.884;2022-07-11T08:13:27;1.58;;;0.60;;
53044;SDS011;38930;52.766;6.884;2022-07-11T08:15:53;0.80;;;0.60;;
53044;SDS011;38930;52.766;6.884;2022-07-11T08:18:18;1.67;;;0.60;;
53044;SDS011;38930;52.766;6.884;2022-07-11T08:20:44;1.80;;;0.73;;
53044;SDS011;38930;52.766;6.884;2022-07-11T08:23:10;1.03;;;0.60;;
53044;SDS011;38930;52.766;6.884;2022-07-11T08:25:35;1.23;;;0.57;;
53044;SDS011;38930;52.766;6.884;2022-07-11T08:28:01;0.93;;;0.57;;
53044;SDS011;38930;52.766;6.884;2022-07-11T08:30:26;0.97;;;0.50;;
53044;SDS011;38930;52.766;6.884;2022-07-11T08:32:52;0.97;;;0.50;;
53044;SDS011;38930;52.766;6.884;2022-07-11T08:35:20;0.93;;;0.50;;
53044;SDS011;38930;52.766;6.884;2022-07-11T08:37:46;0.40;;;0.40;;
53044;SDS011;38930;52.766;6.884;2022-07-11T08:40:12;1.03;;;0.50;;
53044;SDS011;38930;52.766;6.884;2022-07-11T08:42:42;1.40;;;0.60;;
53044;SDS011;38930;52.766;6.884;2022-07-11T08:45:12;0.47;;;0.45;;
53044;SDS011;38930;52.766;6.884;2022-07-11T08:47:42;0.60;;;0.50;;
53044;SDS011;38930;52.766;6.884;2022-07-11T08:50:09;0.93;;;0.50;;
53044;SDS011;38930;52.766;6.884;2022-07-11T08:52:37;0.68;;;0.50;;
53044;SDS011;38930;52.766;6.884;2022-07-11T08:55:04;1.38;;;0.60;;
53044;SDS011;38930;52.766;6.884;2022-07-11T08:57:34;0.75;;;0.40;;
53044;SDS011;38930;52.766;6.884;2022-07-11T09:00:00;0.77;;;0.60;;
53044;SDS011;38930;52.766;6.884;2022-07-11T09:02:29;1.15;;;0.50;;
53044;SDS011;38930;52.766;6.884;2022-07-11T09:04:55;0.65;;;0.55;;
53044;SDS011;38930;52.766;6.884;2022-07-11T09:07:20;0.70;;;0.40;;
53044;SDS011;38930;52.766;6.884;2022-07-11T09:09:46;1.07;;;0.50;;
53044;SDS011;38930;52.766;6.884;2022-07-11T09:12:12;0.90;;;0.40;;
53044;SDS011;38930;52.766;6.884;2022-07-11T09:14:50;1.17;;;0.50;;
53044;SDS011;38930;52.766;6.884;2022-07-11T09:17:23;0.82;;;0.50;;
53044;SDS011;38930;52.766;6.884;2022-07-11T09:19:54;0.60;;;0.50;;
53044;SDS011;38930;52.766;6.884;2022-07-11T09:22:19;1.20;;;0.50;;
53044;SDS011;38930;52.766;6.884;2022-07-11T09:25:07;0.90;;;0.60;;
53044;SDS011;38930;52.766;6.884;2022-07-11T09:28:00;1.45;;;0.50;;
53044;SDS011;38930;52.766;6.884;2022-07-11T09:33:04;0.45;;;0.40;;
53044;SDS011;38930;52.766;6.884;2022-07-11T09:35:31;0.32;;;0.32;;
53044;SDS011;38930;52.766;6.884;2022-07-11T09:38:07;0.68;;;0.40;;
53044;SDS011;38930;52.766;6.884;2022-07-11T09:40:34;1.85;;;0.40;;
53044;SDS011;38930;52.766;6.884;2022-07-11T09:43:01;0.65;;;0.40;;
53044;SDS011;38930;52.766;6.884;2022-07-11T09:45:28;0.50;;;0.40;;
53044;SDS011;38930;52.766;6.884;2022-07-11T09:47:55;0.70;;;0.50;;
53044;SDS011;38930;52.766;6.884;2022-07-11T09:53:10;0.80;;;0.50;;
53044;SDS011;38930;52.766;6.884;2022-07-11T09:55:41;0.82;;;0.40;;
53044;SDS011;38930;52.766;6.884;2022-07-11T09:58:11;0.65;;;0.45;;
53044;SDS011;38930;52.766;6.884;2022-07-11T10:00:41;2.10;;;0.52;;
53044;SDS011;38930;52.766;6.884;2022-07-11T10:05:33;1.35;;;0.70;;
53044;SDS011;38930;52.766;6.884;2022-07-11T10:08:00;0.83;;;0.50;;
53044;SDS011;38930;52.766;6.884;2022-07-11T10:10:27;1.27;;;0.60;;
53044;SDS011;38930;52.766;6.884;2022-07-11T10:12:54;1.13;;;0.47;;
53044;SDS011;38930;52.766;6.884;2022-07-11T10:15:23;0.93;;;0.50;;
53044;SDS011;38930;52.766;6.884;2022-07-11T10:26:15;1.60;;;0.60;;
53044;SDS011;38930;52.766;6.884;2022-07-11T10:28:53;2.50;;;0.60;;
53044;SDS011;38930;52.766;6.884;2022-07-11T10:31:26;1.35;;;0.57;;
53044;SDS011;38930;52.766;6.884;2022-07-11T10:34:01;1.65;;;0.70;;
53044;SDS011;38930;52.766;6.884;2022-07-11T10:36:29;0.93;;;0.60;;
53044;SDS011;38930;52.766;6.884;2022-07-11T10:41:47;1.02;;;0.57;;
53044;SDS011;38930;52.766;6.884;2022-07-11T10:44:12;1.60;;;0.50;;
53044;SDS011;38930;52.766;6.884;2022-07-11T10:46:38;1.47;;;0.50;;
53044;SDS011;38930;52.766;6.884;2022-07-11T11:00:05;1.05;;;0.60;;
53044;SDS011;38930;52.766;6.884;2022-07-11T11:02:58;1.25;;;0.60;;
53044;SDS011;38930;52.766;6.884;2022-07-11T11:11:06;1.13;;;0.60;;
53044;SDS011;38930;52.766;6.884;2022-07-11T11:14:16;1.17;;;0.60;;
53044;SDS011;38930;52.766;6.884;2022-07-11T11:16:41;1.35;;;0.60;;
53044;SDS011;38930;52.766;6.884;2022-07-11T11:19:07;0.70;;;0.57;;
53044;SDS011;38930;52.766;6.884;2022-07-11T11:22:15;1.17;;;0.50;;
53044;SDS011;38930;52.766;6.884;2022-07-11T11:24:42;0.95;;;0.60;;
53044;SDS011;38930;52.766;6.884;2022-07-11T11:27:14;1.50;;;0.70;;
53044;SDS011;38930;52.766;6.884;2022-07-11T11:29:43;1.33;;;0.60;;
53044;SDS011;38930;52.766;6.884;2022-07-11T11:32:09;0.90;;;0.50;;
53044;SDS011;38930;52.766;6.884;2022-07-11T11:34:34;1.27;;;0.50;;
53044;SDS011;38930;52.766;6.884;2022-07-11T11:37:01;2.88;;;0.60;;
53044;SDS011;38930;52.766;6.884;2022-07-11T11:39:28;2.20;;;0.50;;
53044;SDS011;38930;52.766;6.884;2022-07-11T11:42:02;0.68;;;0.40;;
53044;SDS011;38930;52.766;6.884;2022-07-11T11:44:29;0.88;;;0.50;;
53044;SDS011;38930;52.766;6.884;2022-07-11T11:46:56;0.43;;;0.43;;
53044;SDS011;38930;52.766;6.884;2022-07-11T11:49:22;0.77;;;0.50;;
53044;SDS011;38930;52.766;6.884;2022-07-11T11:51:47;0.80;;;0.50;;
53044;SDS011;38930;52.766;6.884;2022-07-11T11:54:20;0.70;;;0.47;;
53044;SDS011;38930;52.766;6.884;2022-07-11T11:56:48;1.58;;;0.52;;
53044;SDS011;38930;52.766;6.884;2022-07-11T11:59:14;1.07;;;0.50;;
53044;SDS011;38930;52.766;6.884;2022-07-11T12:04:07;1.52;;;0.50;;
53044;SDS011;38930;52.766;6.884;2022-07-11T12:06:39;0.70;;;0.47;;
53044;SDS011;38930;52.766;6.884;2022-07-11T12:09:06;0.60;;;0.47;;
53044;SDS011;38930;52.766;6.884;2022-07-11T12:11:40;1.75;;;0.52;;
53044;SDS011;38930;52.766;6.884;2022-07-11T12:14:11;0.60;;;0.50;;
53044;SDS011;38930;52.766;6.884;2022-07-11T12:16:41;2.25;;;0.65;;
53044;SDS011;38930;52.766;6.884;2022-07-11T12:21:50;0.70;;;0.55;;
53044;SDS011;38930;52.766;6.884;2022-07-11T12:24:21;0.40;;;0.40;;
53044;SDS011;38930;52.766;6.884;2022-07-11T12:26:49;0.55;;;0.40;;
53044;SDS011;38930;52.766;6.884;2022-07-11T12:31:58;0.63;;;0.40;;
53044;SDS011;38930;52.766;6.884;2022-07-11T12:34:40;0.82;;;0.43;;
53044;SDS011;38930;52.766;6.884;2022-07-11T12:37:09;1.05;;;0.52;;
53044;SDS011;38930;52.766;6.884;2022-07-11T12:39:36;0.40;;;0.40;;
53044;SDS011;38930;52.766;6.884;2022-07-11T12:42:23;0.40;;;0.40;;
53044;SDS011;38930;52.766;6.884;2022-07-11T12:44:57;0.63;;;0.40;;
53044;SDS011;38930;52.766;6.884;2022-07-11T12:47:25;1.33;;;0.50;;
53044;SDS011;38930;52.766;6.884;2022-07-11T12:49:53;1.33;;;0.50;;
53044;SDS011;38930;52.766;6.884;2022-07-11T12:52:19;1.67;;;0.50;;
53044;SDS011;38930;52.766;6.884;2022-07-11T12:54:44;0.70;;;0.40;;
53044;SDS011;38930;52.766;6.884;2022-07-11T12:57:14;0.50;;;0.40;;
53044;SDS011;38930;52.766;6.884;2022-07-11T12:59:45;2.28;;;0.57;;
53044;SDS011;38930;52.766;6.884;2022-07-11T13:02:11;1.00;;;0.40;;
53044;SDS011;38930;52.766;6.884;2022-07-11T13:04:38;0.75;;;0.40;;
53044;SDS011;38930;52.766;6.884;2022-07-11T13:07:19;0.75;;;0.40;;
53044;SDS011;38930;52.766;6.884;2022-07-11T13:10:29;0.70;;;0.40;;
53044;SDS011;38930;52.766;6.884;2022-07-11T13:13:15;1.65;;;0.35;;
53044;SDS011;38930;52.766;6.884;2022-07-11T13:15:42;1.08;;;0.40;;
53044;SDS011;38930;52.766;6.884;2022-07-11T13:18:08;0.50;;;0.40;;
53044;SDS011;38930;52.766;6.884;2022-07-11T13:20:34;2.25;;;0.50;;
53044;SDS011;38930;52.766;6.884;2022-07-11T13:23:00;1.27;;;0.47;;
53044;SDS011;38930;52.766;6.884;2022-07-11T13:25:26;0.88;;;0.50;;
53044;SDS011;38930;52.766;6.884;2022-07-11T13:27:52;2.00;;;0.50;;
53044;SDS011;38930;52.766;6.884;2022-07-11T13:30:19;0.73;;;0.38;;
53044;SDS011;38930;52.766;6.884;2022-07-11T13:32:48;0.40;;;0.40;;
53044;SDS011;38930;52.766;6.884;2022-07-11T13:35:15;1.35;;;0.50;;
53044;SDS011;38930;52.766;6.884;2022-07-11T13:37:41;1.42;;;0.57;;
53044;SDS011;38930;52.766;6.884;2022-07-11T13:40:08;0.93;;;0.50;;
53044;SDS011;38930;52.766;6.884;2022-07-11T13:42:35;1.15;;;0.50;;
53044;SDS011;38930;52.766;6.884;2022-07-11T13:45:02;1.90;;;0.55;;
53044;SDS011;38930;52.766;6.884;2022-07-11T13:47:28;1.58;;;0.50;;
53044;SDS011;38930;52.766;6.884;2022-07-11T13:49:54;0.63;;;0.40;;
53044;SDS011;38930;52.766;6.884;2022-07-11T13:52:20;0.82;;;0.47;;
53044;SDS011;38930;52.766;6.884;2022-07-11T13:54:46;0.40;;;0.40;;
53044;SDS011;38930;52.766;6.884;2022-07-11T13:57:12;0.97;;;0.40;;
53044;SDS011;38930;52.766;6.884;2022-07-11T13:59:37;0.90;;;0.50;;
53044;SDS011;38930;52.766;6.884;2022-07-11T14:02:04;0.40;;;0.38;;
53044;SDS011;38930;52.766;6.884;2022-07-11T14:04:31;1.33;;;0.40;;
53044;SDS011;38930;52.766;6.884;2022-07-11T14:06:57;3.67;;;0.53;;
53044;SDS011;38930;52.766;6.884;2022-07-11T14:09:22;2.07;;;0.50;;
53044;SDS011;38930;52.766;6.884;2022-07-11T14:11:48;1.40;;;0.40;;
53044;SDS011;38930;52.766;6.884;2022-07-11T14:14:14;0.60;;;0.40;;
53044;SDS011;38930;52.766;6.884;2022-07-11T14:16:40;0.67;;;0.40;;
53044;SDS011;38930;52.766;6.884;2022-07-11T14:19:05;1.23;;;0.60;;
53044;SDS011;38930;52.766;6.884;2022-07-11T14:21:35;0.40;;;0.38;;
53044;SDS011;38930;52.766;6.884;2022-07-11T14:24:05;1.33;;;0.50;;
53044;SDS011;38930;52.766;6.884;2022-07-11T14:26:31;0.50;;;0.40;;
53044;SDS011;38930;52.766;6.884;2022-07-11T14:28:58;1.23;;;0.65;;
53044;SDS011;38930;52.766;6.884;2022-07-11T14:31:24;0.50;;;0.40;;
53044;SDS011;38930;52.766;6.884;2022-07-11T14:33:49;0.77;;;0.50;;
53044;SDS011;38930;52.766;6.884;2022-07-11T14:36:17;1.05;;;0.50;;
53044;SDS011;38930;52.766;6.884;2022-07-11T14:38:43;0.83;;;0.60;;
53044;SDS011;38930;52.766;6.884;2022-07-11T14:41:09;0.85;;;0.40;;
53044;SDS011;38930;52.766;6.884;2022-07-11T14:43:35;0.53;;;0.50;;
53044;SDS011;38930;52.766;6.884;2022-07-11T14:46:00;1.67;;;0.57;;
53044;SDS011;38930;52.766;6.884;2022-07-11T14:48:26;0.40;;;0.40;;
53044;SDS011;38930;52.766;6.884;2022-07-11T14:50:53;1.75;;;0.63;;
53044;SDS011;38930;52.766;6.884;2022-07-11T14:53:19;3.20;;;0.50;;
53044;SDS011;38930;52.766;6.884;2022-07-11T14:55:45;1.90;;;0.50;;
53044;SDS011;38930;52.766;6.884;2022-07-11T14:58:11;2.00;;;0.50;;
53044;SDS011;38930;52.766;6.884;2022-07-11T15:00:36;1.20;;;0.50;;
53044;SDS011;38930;52.766;6.884;2022-07-11T15:03:02;0.50;;;0.40;;
53044;SDS011;38930;52.766;6.884;2022-07-11T15:05:46;2.65;;;0.50;;
53044;SDS011;38930;52.766;6.884;2022-07-11T15:08:12;0.73;;;0.60;;
53044;SDS011;38930;52.766;6.884;2022-07-11T15:10:56;2.95;;;0.60;;
53044;SDS011;38930;52.766;6.884;2022-07-11T15:13:40;1.05;;;0.40;;
53044;SDS011;38930;52.766;6.884;2022-07-11T15:16:07;1.40;;;0.70;;
53044;SDS011;38930;52.766;6.884;2022-07-11T15:18:33;1.27;;;0.50;;
53044;SDS011;38930;52.766;6.884;2022-07-11T15:20:58;0.40;;;0.40;;
53044;SDS011;38930;52.766;6.884;2022-07-11T15:23:24;0.60;;;0.50;;
53044;SDS011;38930;52.766;6.884;2022-07-11T15:25:49;0.87;;;0.50;;
53044;SDS011;38930;52.766;6.884;2022-07-11T15:28:15;1.30;;;0.60;;
53044;SDS011;38930;52.766;6.884;2022-07-11T15:30:41;0.40;;;0.40;;
53044;SDS011;38930;52.766;6.884;2022-07-11T15:33:06;0.63;;;0.53;;
53044;SDS011;38930;52.766;6.884;2022-07-11T15:35:32;1.63;;;0.70;;
53044;SDS011;38930;52.766;6.884;2022-07-11T15:37:58;0.67;;;0.50;;
53044;SDS011;38930;52.766;6.884;2022-07-11T15:40:23;0.40;;;0.40;;
53044;SDS011;38930;52.766;6.884;2022-07-11T15:42:49;0.95;;;0.50;;
53044;SDS011;38930;52.766;6.884;2022-07-11T15:45:15;0.40;;;0.40;;
53044;SDS011;38930;52.766;6.884;2022-07-11T15:47:40;1.00;;;0.50;;
53044;SDS011;38930;52.766;6.884;2022-07-11T15:50:06;0.57;;;0.40;;
53044;SDS011;38930;52.766;6.884;2022-07-11T15:52:35;0.88;;;0.60;;
53044;SDS011;38930;52.766;6.884;2022-07-11T15:55:08;1.55;;;0.60;;